Time;durP1;ratioP1;P1;durP2;ratioP2;P2;SDS_P1;SDS_P2;PMS_P1;PMS_P2;Temp;Humidity;BMP_temperature;BMP_pressure;BME280_temperature;BME280_humidity;BME280_pressure;Samples;Min_cycle;Max_cycle;Signal;HPM_P1;HPM_P2
2023/03/28 00:01:56;;;;;;;1.03;0.57;;;9.70;44.40;;;;;;4994408;28;20116;-68
2023/03/28 00:04:22;;;;;;;3.13;0.30;;;9.70;44.60;;;;;;4994311;28;20102;-69
2023/03/28 00:06:49;;;;;;;1.30;0.40;;;9.70;44.40;;;;;;4994236;28;20031;-68
2023/03/28 00:09:16;;;;;;;0.77;0.30;;;9.60;43.40;;;;;;4994265;28;20034;-68
2023/03/28 00:11:42;;;;;;;0.87;0.50;;;9.60;43.50;;;;;;4994189;28;20363;-68
2023/03/28 00:14:08;;;;;;;1.98;0.63;;;9.60;44.30;;;;;;4994114;28;20105;-68
2023/03/28 00:16:39;;;;;;;2.10;1.00;;;9.70;44.60;;;;;;4993919;28;20058;-68
2023/03/28 00:19:10;;;;;;;0.93;0.43;;;9.60;44.10;;;;;;4993997;28;20122;-68
2023/03/28 00:21:39;;;;;;;1.03;0.30;;;9.60;44.20;;;;;;4994239;28;20467;-68
2023/03/28 00:24:09;;;;;;;0.80;0.30;;;9.60;44.30;;;;;;4994063;28;20427;-68
2023/03/28 00:26:36;;;;;;;1.38;0.50;;;9.50;44.30;;;;;;4993889;28;20029;-68
2023/03/28 00:29:04;;;;;;;2.37;0.50;;;9.50;44.10;;;;;;4992654;28;20427;-68
2023/03/28 00:31:33;;;;;;;1.37;0.47;;;9.40;45.40;;;;;;4993844;28;20093;-68
2023/03/28 00:33:59;;;;;;;2.20;0.60;;;9.40;46.30;;;;;;4993748;28;20022;-68
2023/03/28 00:36:28;;;;;;;4.73;0.40;;;9.40;46.30;;;;;;4993962;28;20050;-69
2023/03/28 00:38:54;;;;;;;0.60;0.40;;;9.30;46.30;;;;;;4993728;28;20129;-69
2023/03/28 00:41:25;;;;;;;1.73;0.70;;;9.20;46.50;;;;;;4993676;28;20050;-68
2023/03/28 00:43:55;;;;;;;1.83;0.63;;;9.20;47.40;;;;;;4993602;28;20057;-68
2023/03/28 00:46:40;;;;;;;3.87;1.00;;;9.20;47.80;;;;;;4993410;28;20034;-68
2023/03/28 00:49:20;;;;;;;1.00;0.60;;;9.10;47.90;;;;;;4993522;28;20034;-68
2023/03/28 00:51:57;;;;;;;1.93;0.80;;;9.00;48.20;;;;;;4993500;28;20092;-68
2023/03/28 00:54:27;;;;;;;2.63;1.10;;;9.00;48.60;;;;;;4992843;28;20114;-69
2023/03/28 00:56:56;;;;;;;2.23;1.00;;;9.00;48.70;;;;;;4993719;28;20418;-69
2023/03/28 00:59:27;;;;;;;3.00;0.83;;;8.90;50.00;;;;;;4990671;28;20042;-68
2023/03/28 01:01:54;;;;;;;2.50;1.03;;;8.80;50.10;;;;;;4990821;28;20027;-68
2023/03/28 01:04:23;;;;;;;2.10;1.10;;;8.80;50.30;;;;;;4991357;28;20027;-69
2023/03/28 01:06:53;;;;;;;1.67;0.93;;;8.70;50.60;;;;;;4992979;28;20122;-69
2023/03/28 01:09:22;;;;;;;2.63;1.30;;;8.60;51.20;;;;;;4993459;28;20053;-68
2023/03/28 01:11:49;;;;;;;2.50;1.10;;;8.60;51.50;;;;;;4993402;28;20394;-69
2023/03/28 01:14:19;;;;;;;2.63;1.13;;;8.60;52.20;;;;;;4992978;28;20034;-71
2023/03/28 01:16:46;;;;;;;2.43;1.17;;;8.50;52.40;;;;;;4993084;28;20548;-68
2023/03/28 01:19:49;;;;;;;1.63;1.00;;;8.50;52.90;;;;;;4993188;28;20043;-69
2023/03/28 01:22:36;;;;;;;2.83;1.30;;;8.50;53.40;;;;;;4991705;28;20065;-68
2023/03/28 01:25:46;;;;;;;3.93;1.10;;;8.40;53.50;;;;;;4993316;28;20029;-68
2023/03/28 01:28:38;;;;;;;2.43;0.90;;;8.40;53.70;;;;;;4991828;28;20114;-68
2023/03/28 01:31:25;;;;;;;4.13;1.33;;;8.30;53.10;;;;;;4992968;28;20598;-68
2023/03/28 01:34:15;;;;;;;2.60;1.37;;;8.30;53.80;;;;;;4993111;28;20096;-68
2023/03/28 01:37:04;;;;;;;2.73;1.07;;;8.30;53.90;;;;;;4991698;28;20030;-68
2023/03/28 01:40:00;;;;;;;2.93;1.37;;;8.20;54.20;;;;;;4993020;28;20045;-68
2023/03/28 01:42:58;;;;;;;4.67;1.10;;;8.20;53.90;;;;;;4991521;28;20035;-68
2023/03/28 01:45:41;;;;;;;3.10;1.30;;;8.10;55.00;;;;;;4990918;28;20107;-68
2023/03/28 01:48:38;;;;;;;7.72;1.40;;;8.00;55.10;;;;;;4992818;28;20384;-67
2023/03/28 01:51:22;;;;;;;3.20;1.10;;;8.00;55.30;;;;;;4993200;28;20022;-68
2023/03/28 01:54:04;;;;;;;2.77;1.63;;;7.90;55.90;;;;;;4993249;28;20030;-68
2023/03/28 01:56:36;;;;;;;1.92;0.82;;;7.90;56.00;;;;;;4993084;28;20062;-68
2023/03/28 01:59:15;;;;;;;3.40;1.20;;;7.80;56.50;;;;;;4992974;28;20038;-68
2023/03/28 02:02:13;;;;;;;3.53;1.17;;;7.80;56.60;;;;;;4992886;28;20455;-68
2023/03/28 02:04:44;;;;;;;5.00;1.03;;;7.80;56.80;;;;;;4993204;28;20042;-68
2023/03/28 02:07:12;;;;;;;3.23;1.30;;;7.70;56.70;;;;;;4996342;28;20058;-68
2023/03/28 02:09:42;;;;;;;2.73;1.20;;;7.70;57.80;;;;;;4996638;28;20105;-68
2023/03/28 02:12:18;;;;;;;2.30;1.17;;;7.70;57.70;;;;;;4996267;28;20042;-69
2023/03/28 02:14:46;;;;;;;2.87;1.00;;;7.70;57.80;;;;;;4996521;28;20030;-68
2023/03/28 02:17:14;;;;;;;2.10;1.07;;;7.70;57.80;;;;;;4996342;28;20038;-69
2023/03/28 02:19:58;;;;;;;2.83;1.23;;;7.60;58.50;;;;;;4996476;28;20121;-68
2023/03/28 02:22:33;;;;;;;2.07;1.17;;;7.60;58.50;;;;;;4996515;28;20474;-68
2023/03/28 02:24:59;;;;;;;4.17;1.40;;;7.60;58.30;;;;;;4996146;28;20030;-68
2023/03/28 02:27:25;;;;;;;3.47;1.53;;;7.50;58.20;;;;;;4996047;28;20053;-68
2023/03/28 02:29:53;;;;;;;3.47;1.20;;;7.50;58.60;;;;;;4996233;28;20033;-68
2023/03/28 02:32:20;;;;;;;4.13;1.20;;;7.40;59.00;;;;;;4996295;28;20018;-67
2023/03/28 02:34:47;;;;;;;2.80;1.40;;;7.40;59.00;;;;;;4995986;28;20442;-68
2023/03/28 02:37:25;;;;;;;3.03;1.10;;;7.30;58.40;;;;;;4995783;28;20027;-68
2023/03/28 02:39:59;;;;;;;2.67;1.30;;;7.20;59.10;;;;;;4995830;28;20100;-68
2023/03/28 02:42:47;;;;;;;2.27;1.30;;;7.20;59.40;;;;;;4996098;28;20394;-68
2023/03/28 02:45:18;;;;;;;2.20;1.33;;;7.20;59.30;;;;;;4995561;28;20061;-69
2023/03/28 02:48:00;;;;;;;6.83;1.23;;;7.20;59.70;;;;;;4995131;28;20090;-68
2023/03/28 02:50:42;;;;;;;4.97;1.53;;;7.10;59.40;;;;;;4995443;28;20190;-68
2023/03/28 02:53:13;;;;;;;2.50;1.30;;;7.10;59.50;;;;;;4995471;28;20269;-68
2023/03/28 02:56:03;;;;;;;3.80;1.30;;;7.10;59.90;;;;;;4995791;28;20041;-68
2023/03/28 02:58:54;;;;;;;3.57;1.43;;;7.10;60.20;;;;;;4995548;28;20027;-68
2023/03/28 03:01:24;;;;;;;2.73;1.20;;;7.10;59.80;;;;;;4995316;28;20065;-68
2023/03/28 03:03:50;;;;;;;2.43;1.20;;;7.00;60.40;;;;;;4995438;28;20034;-68
2023/03/28 03:06:18;;;;;;;2.23;1.30;;;7.00;60.10;;;;;;4995444;28;20557;-68
2023/03/28 03:08:44;;;;;;;4.17;1.20;;;6.90;60.80;;;;;;4995176;28;20027;-68
2023/03/28 03:11:09;;;;;;;3.33;1.23;;;6.90;60.40;;;;;;4995243;28;20042;-68
2023/03/28 03:13:35;;;;;;;3.13;1.10;;;6.90;60.80;;;;;;4995377;28;20030;-68
2023/03/28 03:16:01;;;;;;;4.07;1.60;;;6.80;60.10;;;;;;4994554;28;20110;-68
2023/03/28 03:18:27;;;;;;;2.70;1.07;;;6.80;60.60;;;;;;4995238;28;20023;-68
2023/03/28 03:20:53;;;;;;;1.97;0.90;;;6.80;61.00;;;;;;4995179;28;20042;-68
2023/03/28 03:23:19;;;;;;;5.10;1.10;;;6.80;61.10;;;;;;4995151;28;20027;-68
2023/03/28 03:25:45;;;;;;;2.77;1.20;;;6.80;61.10;;;;;;4995197;28;20052;-68
2023/03/28 03:28:15;;;;;;;5.90;1.30;;;6.80;61.00;;;;;;4995231;28;20023;-68
2023/03/28 03:30:40;;;;;;;3.03;1.20;;;6.80;61.30;;;;;;4994966;28;20431;-68
2023/03/28 03:33:09;;;;;;;4.00;1.77;;;6.80;61.50;;;;;;4994985;28;20030;-68
2023/03/28 03:35:36;;;;;;;6.13;1.40;;;6.70;61.30;;;;;;4994844;28;20481;-68
2023/03/28 03:38:02;;;;;;;3.67;1.60;;;6.70;61.30;;;;;;4994643;28;20026;-68
2023/03/28 03:40:28;;;;;;;5.80;1.70;;;6.60;61.50;;;;;;4994689;28;20100;-68
2023/03/28 03:42:54;;;;;;;4.60;1.30;;;6.60;61.40;;;;;;4994683;28;20022;-68
2023/03/28 03:45:20;;;;;;;4.30;1.60;;;6.60;61.50;;;;;;4994798;28;20044;-68
2023/03/28 03:47:46;;;;;;;3.93;1.40;;;6.60;61.90;;;;;;4994598;28;20039;-68
2023/03/28 03:50:12;;;;;;;5.10;1.53;;;6.50;62.10;;;;;;4994710;28;20092;-68
2023/03/28 03:52:38;;;;;;;6.37;1.50;;;6.50;62.10;;;;;;4994627;28;20101;-68
2023/03/28 03:55:05;;;;;;;3.90;1.40;;;6.50;62.60;;;;;;4994793;28;20026;-68
2023/03/28 03:57:31;;;;;;;4.87;1.90;;;6.50;62.30;;;;;;4994876;28;20496;-68
2023/03/28 03:59:57;;;;;;;3.23;1.37;;;6.40;62.50;;;;;;4994722;28;20038;-68
2023/03/28 04:02:23;;;;;;;3.90;1.30;;;6.40;62.50;;;;;;4994482;28;20430;-68
2023/03/28 04:04:48;;;;;;;10.60;1.60;;;6.40;61.90;;;;;;4994343;28;20034;-68
2023/03/28 04:07:15;;;;;;;5.67;1.00;;;6.40;62.20;;;;;;4994275;28;20015;-69
2023/03/28 04:09:40;;;;;;;3.07;1.30;;;6.30;62.20;;;;;;4994424;28;20018;-68
2023/03/28 04:12:07;;;;;;;3.97;1.20;;;6.30;62.20;;;;;;4994165;28;20490;-68
2023/03/28 04:14:32;;;;;;;3.20;1.30;;;6.20;62.00;;;;;;4994044;28;20049;-68
2023/03/28 04:17:00;;;;;;;2.80;1.40;;;6.20;62.00;;;;;;4994114;28;20027;-68
2023/03/28 04:19:26;;;;;;;4.20;1.40;;;6.10;62.40;;;;;;4994054;28;20030;-68
2023/03/28 04:21:55;;;;;;;5.93;1.40;;;6.10;62.60;;;;;;4994100;28;20394;-68
2023/03/28 04:24:23;;;;;;;4.60;1.37;;;6.10;63.00;;;;;;4994223;28;20105;-68
2023/03/28 04:26:54;;;;;;;8.90;1.53;;;6.10;62.20;;;;;;4993986;28;20053;-68
2023/03/28 04:29:24;;;;;;;8.57;1.37;;;6.10;62.00;;;;;;4994029;28;20049;-68
2023/03/28 04:31:49;;;;;;;4.43;2.67;;;6.10;62.30;;;;;;4993973;28;20029;-68
2023/03/28 04:34:18;;;;;;;6.97;2.83;;;6.10;62.10;;;;;;4993914;28;20378;-68
2023/03/28 04:36:45;;;;;;;22.03;2.73;;;6.10;62.90;;;;;;4994055;28;20054;-68
2023/03/28 04:39:12;;;;;;;21.77;3.37;;;6.00;62.80;;;;;;4993782;28;20367;-68
2023/03/28 04:41:38;;;;;;;16.10;2.50;;;6.00;63.20;;;;;;4993755;28;20044;-68
2023/03/28 04:44:04;;;;;;;4.20;2.00;;;6.00;63.70;;;;;;4993677;28;20550;-68
2023/03/28 04:46:29;;;;;;;13.27;2.10;;;6.00;63.30;;;;;;4993343;28;20026;-68
2023/03/28 04:48:55;;;;;;;6.20;1.90;;;5.90;63.00;;;;;;4993666;28;20015;-68
2023/03/28 04:51:21;;;;;;;3.50;1.53;;;5.90;63.10;;;;;;4993729;28;20126;-68
2023/03/28 04:53:47;;;;;;;2.60;1.50;;;5.90;62.10;;;;;;4993653;28;20072;-69
2023/03/28 04:56:13;;;;;;;4.60;1.83;;;5.90;62.60;;;;;;4993710;28;20081;-68
2023/03/28 04:58:40;;;;;;;8.27;1.30;;;5.90;62.40;;;;;;4993560;28;20029;-68
2023/03/28 05:01:09;;;;;;;4.90;1.50;;;5.80;62.40;;;;;;4992049;28;20093;-69
2023/03/28 05:03:36;;;;;;;4.27;1.30;;;5.80;62.60;;;;;;4992028;28;20022;-68
2023/03/28 05:06:03;;;;;;;7.27;1.50;;;5.80;61.90;;;;;;4993553;28;20390;-68
2023/03/28 05:08:29;;;;;;;3.00;1.13;;;5.80;62.50;;;;;;4993332;28;20061;-68
2023/03/28 05:10:54;;;;;;;3.60;1.57;;;5.80;61.70;;;;;;4993479;28;20418;-68
2023/03/28 05:13:20;;;;;;;3.47;1.07;;;5.80;62.10;;;;;;4993266;28;20157;-69
2023/03/28 05:15:47;;;;;;;3.47;1.20;;;5.70;61.50;;;;;;4993127;28;20104;-69
2023/03/28 05:18:13;;;;;;;3.70;1.20;;;5.70;61.90;;;;;;4993233;28;20026;-69
2023/03/28 05:20:39;;;;;;;4.97;1.70;;;5.80;62.20;;;;;;4992821;28;20034;-68
2023/03/28 05:23:05;;;;;;;3.53;1.10;;;5.80;62.00;;;;;;4992902;28;20140;-69
2023/03/28 05:25:31;;;;;;;5.03;1.63;;;5.80;62.80;;;;;;4993539;28;20019;-68
2023/03/28 05:27:57;;;;;;;3.93;1.60;;;5.70;62.00;;;;;;4993211;28;20049;-69
2023/03/28 05:30:23;;;;;;;3.57;1.67;;;5.80;62.10;;;;;;4993297;28;20072;-69
2023/03/28 05:32:49;;;;;;;11.07;2.50;;;5.80;62.50;;;;;;4991916;28;20109;-69
2023/03/28 05:35:15;;;;;;;11.90;2.60;;;5.80;62.20;;;;;;4993046;28;20026;-69
2023/03/28 05:37:41;;;;;;;4.03;1.63;;;5.80;62.40;;;;;;4992170;28;20018;-68
2023/03/28 05:40:09;;;;;;;4.73;2.00;;;5.80;62.40;;;;;;4994088;28;20038;-68
2023/03/28 05:42:36;;;;;;;3.60;2.00;;;5.90;62.50;;;;;;4997009;28;20022;-68
2023/03/28 05:45:03;;;;;;;8.73;2.10;;;5.90;63.60;;;;;;4997204;28;20096;-68
2023/03/28 05:47:29;;;;;;;8.30;2.30;;;5.90;63.10;;;;;;4996901;28;20046;-68
2023/03/28 05:49:55;;;;;;;5.20;2.50;;;5.90;63.30;;;;;;4996521;28;20117;-68
2023/03/28 05:52:21;;;;;;;7.23;2.53;;;6.00;63.30;;;;;;4995894;28;20102;-68
2023/03/28 05:54:46;;;;;;;5.83;2.40;;;6.00;63.00;;;;;;4995823;28;20036;-68
2023/03/28 05:57:12;;;;;;;4.93;2.13;;;6.00;63.10;;;;;;4996667;28;20031;-69
2023/03/28 05:59:39;;;;;;;4.93;2.40;;;6.00;62.70;;;;;;4995534;28;20121;-69
2023/03/28 06:02:10;;;;;;;4.83;2.40;;;6.10;62.60;;;;;;4996722;28;20026;-69
2023/03/28 06:04:36;;;;;;;11.60;2.83;;;6.10;62.60;;;;;;4996549;28;20480;-68
2023/03/28 06:07:02;;;;;;;9.03;2.70;;;6.10;62.50;;;;;;4995969;28;20026;-69
2023/03/28 06:09:30;;;;;;;17.97;2.93;;;6.10;62.80;;;;;;4995273;28;20031;-68
2023/03/28 06:12:00;;;;;;;16.10;3.03;;;6.20;62.80;;;;;;4996491;28;20491;-69
2023/03/28 06:14:27;;;;;;;11.47;2.37;;;6.20;62.80;;;;;;4995303;28;20026;-68
2023/03/28 06:16:53;;;;;;;8.10;2.37;;;6.20;63.20;;;;;;4996277;28;20054;-70
2023/03/28 06:19:18;;;;;;;4.63;2.60;;;6.30;63.20;;;;;;4996295;28;20041;-69
2023/03/28 06:21:44;;;;;;;9.00;2.10;;;6.30;62.90;;;;;;4996469;28;20030;-69
2023/03/28 06:24:10;;;;;;;6.13;1.90;;;6.40;62.60;;;;;;4996205;28;20034;-69
2023/03/28 06:26:36;;;;;;;4.53;1.80;;;6.40;62.20;;;;;;4996334;28;20023;-69
2023/03/28 06:29:03;;;;;;;3.13;1.80;;;6.40;61.70;;;;;;4996218;28;20525;-68
2023/03/28 06:31:29;;;;;;;3.67;1.70;;;6.50;60.70;;;;;;4996102;28;20106;-69
2023/03/28 06:33:54;;;;;;;3.47;1.80;;;6.50;60.90;;;;;;4996202;28;20447;-69
2023/03/28 06:36:20;;;;;;;5.67;1.70;;;6.60;60.90;;;;;;4993518;28;20023;-69
2023/03/28 06:38:46;;;;;;;10.33;2.10;;;6.70;60.00;;;;;;4995210;28;20034;-68
2023/03/28 06:41:12;;;;;;;3.47;1.70;;;6.70;59.50;;;;;;4995291;28;20961;-76
2023/03/28 06:43:38;;;;;;;6.80;2.73;;;6.80;59.20;;;;;;4995561;28;20437;-72
2023/03/28 06:46:04;;;;;;;8.73;2.20;;;6.80;58.70;;;;;;4976117;28;20074;-70
2023/03/28 06:48:30;;;;;;;5.43;2.17;;;6.90;58.40;;;;;;4975524;28;20488;-74
2023/03/28 06:50:59;;;;;;;4.63;1.97;;;7.00;57.90;;;;;;4974857;28;20027;-69
2023/03/28 06:53:26;;;;;;;4.10;1.30;;;7.00;57.70;;;;;;4975729;28;20023;-74
2023/03/28 06:55:53;;;;;;;2.50;1.30;;;7.10;57.10;;;;;;4975423;28;20123;-69
2023/03/28 06:58:20;;;;;;;2.70;1.10;;;7.10;56.80;;;;;;4971001;28;20089;-71
2023/03/28 07:00:46;;;;;;;4.80;1.03;;;7.20;56.70;;;;;;4970563;28;20059;-71
2023/03/28 07:03:12;;;;;;;2.53;1.40;;;7.30;56.70;;;;;;4975882;28;20019;-69
2023/03/28 07:05:40;;;;;;;11.50;2.00;;;7.40;56.60;;;;;;4970113;28;20690;-79
2023/03/28 07:08:07;;;;;;;4.63;2.30;;;7.40;56.00;;;;;;4973957;28;20483;-71
2023/03/28 07:10:34;;;;;;;4.33;2.30;;;7.40;55.20;;;;;;4974897;28;20026;-72
2023/03/28 07:13:01;;;;;;;9.13;2.00;;;7.50;55.20;;;;;;4980771;28;20050;-81
2023/03/28 07:15:27;;;;;;;5.10;2.93;;;7.50;55.70;;;;;;4993971;28;20042;-74
2023/03/28 07:17:53;;;;;;;6.53;2.33;;;7.60;55.90;;;;;;4995270;28;20022;-81
2023/03/28 07:20:19;;;;;;;8.43;2.70;;;7.60;55.30;;;;;;4994320;28;20065;-74
2023/03/28 07:22:45;;;;;;;5.00;2.40;;;7.70;55.40;;;;;;4994149;28;20034;-70
2023/03/28 07:25:11;;;;;;;7.03;1.97;;;7.80;55.50;;;;;;4995124;28;20014;-70
2023/03/28 07:27:37;;;;;;;5.17;2.43;;;7.80;55.40;;;;;;4995437;28;20033;-69
2023/03/28 07:30:05;;;;;;;7.73;2.07;;;7.90;55.40;;;;;;4995340;28;20089;-71
2023/03/28 07:32:31;;;;;;;4.47;1.57;;;8.00;55.40;;;;;;4993993;28;20410;-70
2023/03/28 07:34:56;;;;;;;2.67;1.20;;;8.00;55.20;;;;;;4995346;28;20037;-69
2023/03/28 07:37:22;;;;;;;4.10;1.13;;;8.10;54.50;;;;;;4993700;28;20058;-69
2023/03/28 07:39:48;;;;;;;2.80;1.03;;;8.20;52.80;;;;;;4997612;28;20098;-70
2023/03/28 07:42:15;;;;;;;3.73;1.07;;;8.30;52.70;;;;;;4994948;28;20015;-70
2023/03/28 07:44:40;;;;;;;8.57;1.10;;;8.40;52.80;;;;;;4994964;28;20029;-70
2023/03/28 07:47:07;;;;;;;3.73;0.90;;;8.40;52.50;;;;;;4994539;28;20050;-70
2023/03/28 07:49:33;;;;;;;6.20;1.20;;;8.50;53.10;;;;;;4994618;28;20050;-70
2023/03/28 07:51:58;;;;;;;2.10;1.07;;;8.60;53.20;;;;;;4997216;28;20081;-70
2023/03/28 07:54:26;;;;;;;6.33;1.00;;;8.70;52.60;;;;;;5012856;28;20053;-70
2023/03/28 07:56:52;;;;;;;2.47;0.90;;;8.70;52.70;;;;;;4998952;28;20049;-70
2023/03/28 07:59:17;;;;;;;3.20;0.90;;;8.80;52.40;;;;;;4994265;28;20034;-70
2023/03/28 08:01:44;;;;;;;2.00;1.17;;;8.90;51.60;;;;;;4994316;28;20038;-70
2023/03/28 08:04:12;;;;;;;3.80;1.60;;;8.90;49.50;;;;;;4993957;28;20041;-70
2023/03/28 08:06:38;;;;;;;5.27;1.57;;;9.00;50.20;;;;;;4994319;28;20042;-70
2023/03/28 08:09:12;;;;;;;4.93;1.33;;;9.10;51.20;;;;;;4994737;28;20070;-70
2023/03/28 08:11:39;;;;;;;2.63;1.60;;;9.10;52.30;;;;;;4994293;28;20022;-70
2023/03/28 08:14:08;;;;;;;4.40;1.30;;;9.20;52.60;;;;;;4993772;28;20033;-70
2023/03/28 08:16:34;;;;;;;7.13;1.70;;;9.20;52.60;;;;;;4992294;28;20022;-68
2023/03/28 08:19:00;;;;;;;6.80;1.33;;;9.30;53.30;;;;;;4993561;28;20031;-69
2023/03/28 08:21:29;;;;;;;2.60;1.33;;;9.40;53.10;;;;;;4992990;28;20034;-68
2023/03/28 08:23:56;;;;;;;2.80;1.40;;;9.40;52.70;;;;;;4994063;28;20021;-68
2023/03/28 08:26:22;;;;;;;2.80;1.57;;;9.50;53.70;;;;;;4992939;28;20549;-70
2023/03/28 08:28:48;;;;;;;5.17;1.50;;;9.50;54.20;;;;;;4993739;28;20022;-69
2023/03/28 08:31:15;;;;;;;2.57;1.40;;;9.60;53.90;;;;;;4994072;28;20029;-71
2023/03/28 08:33:46;;;;;;;9.33;1.63;;;9.60;54.90;;;;;;4994073;28;20148;-70
2023/03/28 08:36:13;;;;;;;2.57;1.23;;;9.70;55.40;;;;;;4993857;28;20081;-70
2023/03/28 08:38:40;;;;;;;2.07;1.00;;;9.70;53.40;;;;;;4992636;28;20038;-71
2023/03/28 08:41:32;;;;;;;2.97;1.00;;;9.80;51.30;;;;;;5001223;28;20517;-70
2023/03/28 08:44:29;;;;;;;5.07;0.80;;;9.80;50.40;;;;;;5001729;28;20069;-70
2023/03/28 08:47:25;;;;;;;2.23;0.77;;;9.90;50.30;;;;;;5003685;28;20037;-71
2023/03/28 08:50:33;;;;;;;2.57;0.77;;;10.00;48.30;;;;;;4992808;28;20617;-70
2023/03/28 08:53:01;;;;;;;2.97;0.83;;;10.10;48.00;;;;;;4970136;28;20022;-71
2023/03/28 08:55:32;;;;;;;1.00;0.53;;;10.20;48.00;;;;;;4988344;28;20042;-70
2023/03/28 08:57:58;;;;;;;0.93;0.60;;;10.30;48.20;;;;;;4991763;28;20030;-69
2023/03/28 09:00:38;;;;;;;5.63;0.57;;;10.30;45.30;;;;;;4991521;28;20042;-68
2023/03/28 09:03:12;;;;;;;3.03;0.73;;;10.40;46.40;;;;;;4991065;28;20037;-70
2023/03/28 09:05:59;;;;;;;4.43;1.03;;;10.40;45.50;;;;;;4991767;28;20054;-70
2023/03/28 09:09:03;;;;;;;1.17;0.67;;;10.50;45.00;;;;;;4991110;28;20025;-70
2023/03/28 09:11:29;;;;;;;2.67;0.90;;;10.60;44.40;;;;;;4990473;28;20034;-70
2023/03/28 09:14:29;;;;;;;1.00;0.70;;;10.70;44.00;;;;;;4990844;28;20076;-70
2023/03/28 09:17:28;;;;;;;1.20;0.60;;;10.70;45.20;;;;;;4991455;28;20034;-70
2023/03/28 09:20:32;;;;;;;4.00;0.87;;;10.80;43.30;;;;;;4993009;28;20065;-70
2023/03/28 09:23:35;;;;;;;1.20;0.60;;;10.90;43.10;;;;;;4989986;28;20034;-70
2023/03/28 09:26:05;;;;;;;2.60;0.77;;;11.00;42.80;;;;;;4993003;28;20103;-69
2023/03/28 09:29:01;;;;;;;3.00;0.60;;;11.10;40.70;;;;;;4993793;28;20027;-71
2023/03/28 09:31:34;;;;;;;1.43;0.50;;;11.10;42.50;;;;;;4991970;28;20133;-70
2023/03/28 09:34:01;;;;;;;6.28;0.52;;;11.20;41.50;;;;;;4992410;28;20030;-70
2023/03/28 09:36:30;;;;;;;3.33;0.50;;;11.30;42.20;;;;;;4993097;28;20101;-70
2023/03/28 09:39:32;;;;;;;1.52;0.70;;;11.40;39.60;;;;;;4992616;28;20061;-70
2023/03/28 09:42:12;;;;;;;1.55;0.80;;;11.50;40.90;;;;;;4988999;28;20073;-69
2023/03/28 09:44:50;;;;;;;1.42;0.70;;;11.60;40.80;;;;;;4992823;28;20023;-69
2023/03/28 09:47:16;;;;;;;1.15;0.60;;;11.70;39.60;;;;;;4992673;28;20038;-69
2023/03/28 09:49:42;;;;;;;9.10;0.52;;;11.70;39.10;;;;;;4992678;28;20045;-70
2023/03/28 09:52:16;;;;;;;1.30;0.55;;;11.70;39.40;;;;;;4992681;28;20117;-70
2023/03/28 09:54:42;;;;;;;1.13;0.60;;;11.80;38.70;;;;;;4992922;28;20030;-68
2023/03/28 09:57:07;;;;;;;2.95;0.60;;;11.90;39.20;;;;;;4992737;28;20023;-68
2023/03/28 09:59:35;;;;;;;1.05;0.45;;;11.90;39.70;;;;;;4992994;28;20066;-69
2023/03/28 10:02:02;;;;;;;1.08;0.60;;;12.00;39.90;;;;;;4992539;28;20035;-67
2023/03/28 10:04:28;;;;;;;0.80;0.40;;;12.10;37.80;;;;;;4992522;28;20019;-68
2023/03/28 10:07:07;;;;;;;0.73;0.43;;;12.20;37.30;;;;;;4992540;28;20018;-68
2023/03/28 10:09:33;;;;;;;0.50;0.30;;;12.30;35.00;;;;;;4992726;28;20125;-70
2023/03/28 10:12:03;;;;;;;0.98;0.17;;;12.30;34.30;;;;;;4992864;28;20106;-69
2023/03/28 10:14:35;;;;;;;1.05;0.32;;;12.30;33.10;;;;;;4993004;28;20022;-68
2023/03/28 10:17:17;;;;;;;1.60;0.40;;;12.40;33.70;;;;;;4992929;28;20101;-69
2023/03/28 10:19:45;;;;;;;0.90;0.40;;;12.50;34.20;;;;;;4992734;28;20398;-67
2023/03/28 10:22:24;;;;;;;1.15;0.38;;;12.50;33.90;;;;;;4992727;28;20019;-67
2023/03/28 10:24:50;;;;;;;0.73;0.30;;;12.60;34.90;;;;;;4992776;28;20475;-69
2023/03/28 10:27:25;;;;;;;0.82;0.40;;;12.70;34.70;;;;;;4996065;28;20571;-69
2023/03/28 10:29:54;;;;;;;0.52;0.30;;;12.80;34.30;;;;;;4996510;28;20026;-68
2023/03/28 10:32:30;;;;;;;1.98;0.50;;;12.90;33.70;;;;;;4996018;28;20050;-67
2023/03/28 10:35:01;;;;;;;0.68;0.43;;;13.00;33.10;;;;;;4996246;28;20438;-70
2023/03/28 10:37:30;;;;;;;0.88;0.50;;;13.00;32.80;;;;;;4996212;28;20121;-67
2023/03/28 10:40:28;;;;;;;1.20;0.40;;;13.10;32.30;;;;;;4995966;28;20039;-69
2023/03/28 10:42:55;;;;;;;0.30;0.30;;;13.20;32.50;;;;;;4996086;28;20022;-67
2023/03/28 10:45:42;;;;;;;1.20;0.43;;;13.30;32.20;;;;;;4996214;28;20034;-67
2023/03/28 10:48:25;;;;;;;0.57;0.28;;;13.30;32.30;;;;;;4995893;28;20038;-69
2023/03/28 10:50:56;;;;;;;0.98;0.50;;;13.40;34.20;;;;;;4996141;28;20105;-69
2023/03/28 10:53:23;;;;;;;1.38;0.50;;;13.50;33.10;;;;;;4994836;28;20037;-70
2023/03/28 10:56:22;;;;;;;0.65;0.40;;;13.60;30.30;;;;;;4995817;28;20069;-70
2023/03/28 10:59:07;;;;;;;1.10;0.47;;;13.70;32.10;;;;;;4995867;28;20026;-70
2023/03/28 11:01:45;;;;;;;1.45;0.40;;;13.70;31.70;;;;;;4995553;28;20038;-68
2023/03/28 11:04:41;;;;;;;0.43;0.32;;;13.80;31.80;;;;;;4995619;28;20097;-68
2023/03/28 11:07:36;;;;;;;0.60;0.30;;;13.80;30.90;;;;;;4994878;28;20501;-68
2023/03/28 11:10:40;;;;;;;2.60;0.40;;;13.90;29.40;;;;;;4986627;28;20060;-68
2023/03/28 11:13:37;;;;;;;2.13;0.70;;;13.90;29.70;;;;;;4976935;28;20042;-68
2023/03/28 11:16:13;;;;;;;2.80;0.50;;;14.00;30.40;;;;;;4987006;28;20038;-68
2023/03/28 11:18:54;;;;;;;0.30;0.30;;;14.00;30.30;;;;;;4994644;28;20106;-68
2023/03/28 11:21:29;;;;;;;3.05;0.60;;;14.20;30.40;;;;;;4995196;28;20505;-67
2023/03/28 11:24:04;;;;;;;0.75;0.45;;;14.20;30.20;;;;;;4995344;28;20084;-68
2023/03/28 11:26:58;;;;;;;1.00;0.50;;;14.30;31.20;;;;;;4995172;28;20037;-68
2023/03/28 11:29:46;;;;;;;0.82;0.60;;;14.40;31.20;;;;;;4994873;28;20390;-68
2023/03/28 11:32:21;;;;;;;0.93;0.50;;;14.50;31.40;;;;;;4995075;28;20133;-68
2023/03/28 11:35:01;;;;;;;1.30;0.73;;;14.60;30.50;;;;;;4994918;28;20426;-68
2023/03/28 11:37:35;;;;;;;1.23;0.82;;;14.70;32.20;;;;;;4994078;28;20124;-68
2023/03/28 11:40:29;;;;;;;1.77;0.70;;;14.80;31.60;;;;;;4994752;28;20084;-68
2023/03/28 11:42:59;;;;;;;1.08;0.70;;;14.90;33.40;;;;;;4994918;28;20019;-68
2023/03/28 11:45:37;;;;;;;1.48;0.70;;;14.90;32.80;;;;;;4994957;28;20105;-68
2023/03/28 11:48:17;;;;;;;4.85;1.05;;;15.00;32.80;;;;;;4994633;28;20050;-68
2023/03/28 11:50:48;;;;;;;0.70;0.50;;;15.10;31.40;;;;;;4994947;28;20018;-68
2023/03/28 11:53:25;;;;;;;1.10;0.52;;;15.10;32.20;;;;;;4994624;28;20132;-68
2023/03/28 11:56:23;;;;;;;0.40;0.40;;;15.10;33.40;;;;;;4994382;28;20474;-67
2023/03/28 11:58:53;;;;;;;0.63;0.40;;;15.20;32.80;;;;;;4990416;28;20049;-68
2023/03/28 12:01:27;;;;;;;0.70;0.40;;;15.20;32.60;;;;;;4994183;28;20529;-68
2023/03/28 12:04:04;;;;;;;0.50;0.40;;;15.10;32.00;;;;;;4994406;28;20026;-68
2023/03/28 12:06:46;;;;;;;3.55;0.57;;;15.20;32.80;;;;;;4994461;28;20455;-68
2023/03/28 12:09:40;;;;;;;1.90;0.90;;;15.30;32.90;;;;;;4994521;28;20511;-68
2023/03/28 12:12:28;;;;;;;0.65;0.40;;;15.30;32.90;;;;;;4994322;28;20447;-68
2023/03/28 12:14:56;;;;;;;1.35;0.73;;;15.40;31.50;;;;;;4994294;28;20054;-68
2023/03/28 12:17:30;;;;;;;1.63;0.65;;;15.40;32.40;;;;;;4994147;28;20026;-68
2023/03/28 12:19:56;;;;;;;3.33;0.50;;;15.50;33.90;;;;;;4993944;28;20034;-69
2023/03/28 12:22:31;;;;;;;1.27;0.57;;;15.50;32.20;;;;;;4994009;28;20372;-69
2023/03/28 12:25:10;;;;;;;1.27;0.60;;;15.50;32.60;;;;;;4994076;28;20057;-68
2023/03/28 12:27:42;;;;;;;1.88;0.70;;;15.50;32.80;;;;;;4994120;28;20049;-68
2023/03/28 12:30:34;;;;;;;1.48;0.50;;;15.50;32.60;;;;;;4993851;28;20080;-68
2023/03/28 12:33:21;;;;;;;1.50;0.68;;;15.50;33.70;;;;;;4993653;28;20022;-69
2023/03/28 12:35:52;;;;;;;0.52;0.47;;;15.60;32.70;;;;;;4993910;28;20032;-70
2023/03/28 12:38:28;;;;;;;1.05;0.60;;;15.60;33.80;;;;;;4993913;28;20034;-70
2023/03/28 12:41:19;;;;;;;2.05;0.50;;;15.60;33.40;;;;;;4993756;28;20081;-71
2023/03/28 12:43:50;;;;;;;1.83;0.60;;;15.70;33.80;;;;;;4993695;28;20037;-71
2023/03/28 12:46:29;;;;;;;1.27;0.40;;;15.60;33.10;;;;;;4993575;28;20030;-71
2023/03/28 12:49:03;;;;;;;0.77;0.47;;;15.70;32.60;;;;;;4993724;28;20037;-70
2023/03/28 12:51:45;;;;;;;1.05;0.52;;;15.70;33.50;;;;;;4992469;28;20031;-71
2023/03/28 12:54:16;;;;;;;2.75;1.10;;;15.70;33.10;;;;;;4993392;28;20477;-70
2023/03/28 12:57:07;;;;;;;0.88;0.45;;;15.70;32.90;;;;;;4993650;28;20027;-70
2023/03/28 12:59:45;;;;;;;2.42;0.77;;;15.70;33.70;;;;;;4993555;28;20027;-70
2023/03/28 13:02:33;;;;;;;1.58;0.60;;;15.60;33.90;;;;;;4993520;28;20057;-70
2023/03/28 13:05:24;;;;;;;0.90;0.50;;;15.70;33.40;;;;;;4993576;28;20092;-70
2023/03/28 13:08:13;;;;;;;0.45;0.40;;;15.70;34.60;;;;;;4992504;28;20089;-70
2023/03/28 13:10:41;;;;;;;3.08;0.70;;;15.70;33.00;;;;;;4993473;28;20034;-70
2023/03/28 13:13:34;;;;;;;1.50;0.70;;;15.80;33.60;;;;;;4993505;28;20022;-71
2023/03/28 13:16:00;;;;;;;;;;;15.80;34.40;;;;;;4994132;28;20077;-71
2023/03/28 13:18:30;;;;;;;1.25;0.55;;;15.80;33.60;;;;;;4993455;28;19906;-70
2023/03/28 13:20:58;;;;;;;1.33;0.45;;;15.80;33.10;;;;;;4992924;28;20510;-70
2023/03/28 13:23:34;;;;;;;2.40;1.40;;;15.80;33.90;;;;;;4993153;28;20019;-69